This is the latest recevied weather packets stored in our database for station/object AB0TJ. If no packets are shown the sender has not sent any weather packets the latest 10 day(s).
| Time | Temp. | Humidity | Pressure | Rain* | Wind** | Luminosity | Snow |
|---|---|---|---|---|---|---|---|
| 1777604974 | 12.78° C | 39% | 1015.5 hPa | 0 mm | - | 0 W/m² | - |
| 1777604379 | 13.33° C | 39% | 1015.6 hPa | 0 mm | - | 0 W/m² | - |
| 1777603889 | 13.33° C | 39% | 1015.3 hPa | 0 mm | - | 0 W/m² | - |
| 1777603389 | 13.33° C | 38% | 1015.1 hPa | 0 mm | - | 0 W/m² | - |
| 1777602909 | 13.89° C | 37% | 1015.1 hPa | 0 mm | - | 0 W/m² | - |
| 1777602346 | 13.89° C | 36% | 1014.9 hPa | 0 mm | - | 0 W/m² | - |
| 1777601273 | 15° C | 34% | 1014.7 hPa | 0 mm | - | 4 W/m² | - |
| 1777584554 | 18.33° C | 27% | 1013.8 hPa | 0 mm | - | 715 W/m² | - |
| 1777583513 | 18.33° C | 28% | 1014.4 hPa | 0 mm | - | 757 W/m² | - |
| 1777582919 | 18.33° C | 27% | 1014.4 hPa | 0 mm | - | 788 W/m² | - |
| 1777580186 | 18.33° C | 27% | 1014.2 hPa | 0 mm | - | 761 W/m² | - |
| 1777572836 | 18.89° C | 25% | 1015.3 hPa | 0 mm | - | 183 W/m² | - |
| 1777571754 | 18.33° C | 27% | 1015.5 hPa | 0 mm | - | 819 W/m² | - |
| 1777569574 | 17.78° C | 27% | 1016.1 hPa | 0 mm | - | 700 W/m² | - |
| 1777568037 | 17.22° C | 28% | 1016.2 hPa | 0 mm | - | 651 W/m² | - |
| 1777566949 | 16.67° C | 27% | 1016.5 hPa | 0 mm | - | 608 W/m² | - |
| 1777560933 | 11.67° C | 40% | 1017.3 hPa | 0 mm | - | 302 W/m² | - |
| 1777557619 | 7.22° C | 52% | 1017.3 hPa | 0 mm | - | 120 W/m² | - |
| 1777555484 | 3.89° C | 65% | 1017 hPa | 0 mm | - | 34 W/m² | - |
| 1777550149 | 3.33° C | 63% | 1016.5 hPa | 0 mm | - | 0 W/m² | - |
| 1777547979 | 3.89° C | 61% | 1016.4 hPa | 0 mm | - | 0 W/m² | - |
| 1777545312 | 4.44° C | 58% | 1016.4 hPa | 0 mm | - | 0 W/m² | - |
| 1777544819 | 4.44° C | 57% | 1016.3 hPa | 0 mm | - | 0 W/m² | - |
| 1777544314 | 4.44° C | 56% | 1016.4 hPa | 0 mm | - | 0 W/m² | - |
| 1777543719 | 5° C | 55% | 1016.5 hPa | 0 mm | - | 0 W/m² | - |
* Rain latest hour (hover to see other rain measurements)
** Current wind speed in m/s (hover to see current wind gust speed)